createdAt,value
2018-02-18T00:00:35.802Z,1016.22
2018-02-18T00:01:16.188Z,1016.23
2018-02-18T00:01:56.554Z,1016.22
2018-02-18T00:02:36.956Z,1016.23
2018-02-18T00:03:17.295Z,1016.19
2018-02-18T00:03:57.782Z,1016.21
2018-02-18T00:04:38.107Z,1016.2
2018-02-18T00:05:18.574Z,1016.19
2018-02-18T00:05:58.932Z,1016.14
2018-02-18T00:06:39.293Z,1016.19
2018-02-18T00:07:19.796Z,1016.2
2018-02-18T00:08:00.152Z,1016.18
2018-02-18T00:08:40.553Z,1016.19
2018-02-18T00:09:20.959Z,1016.22
2018-02-18T00:10:01.360Z,1016.24
2018-02-18T00:10:41.698Z,1016.19
2018-02-18T00:11:22.092Z,1016.21
2018-02-18T00:12:02.529Z,1016.19
2018-02-18T00:12:42.904Z,1016.2
2018-02-18T00:13:23.399Z,1016.21
2018-02-18T00:14:03.821Z,1016.22
2018-02-18T00:14:44.148Z,1016.24
2018-02-18T00:15:24.606Z,1016.23
2018-02-18T00:16:05.052Z,1016.2
2018-02-18T00:16:45.380Z,1016.21
2018-02-18T00:17:25.772Z,1016.21
2018-02-18T00:18:06.288Z,1016.21
2018-02-18T00:18:46.624Z,1016.23
2018-02-18T00:19:27.018Z,1016.22
2018-02-18T00:20:07.434Z,1016.21
2018-02-18T00:20:47.757Z,1016.21
2018-02-18T00:21:28.250Z,1016.24
2018-02-18T00:22:08.589Z,1016.19
2018-02-18T00:22:49.081Z,1016.23
2018-02-18T00:23:29.435Z,1016.16
2018-02-18T00:24:10.038Z,1016.19
2018-02-18T00:24:50.503Z,1016.2
2018-02-18T00:25:30.854Z,1016.19
2018-02-18T00:26:11.196Z,1016.2
2018-02-18T00:26:51.630Z,1016.19
2018-02-18T00:27:32.001Z,1016.17
2018-02-18T00:28:12.442Z,1016.22
2018-02-18T00:28:52.817Z,1016.23
2018-02-18T00:29:33.192Z,1016.23
2018-02-18T00:30:13.582Z,1016.27
2018-02-18T00:30:54.050Z,1016.24
2018-02-18T00:31:34.379Z,1016.25
2018-02-18T00:32:14.784Z,1016.21
2018-02-18T00:32:55.262Z,1016.22
2018-02-18T00:33:35.544Z,1016.23
2018-02-18T00:34:15.989Z,1016.26
2018-02-18T00:34:56.384Z,1016.24
2018-02-18T00:35:36.780Z,1016.24
2018-02-18T00:36:17.171Z,1016.28
2018-02-18T00:36:57.614Z,1016.3
2018-02-18T00:37:37.999Z,1016.29
2018-02-18T00:38:18.314Z,1016.31
2018-02-18T00:38:58.755Z,1016.33
2018-02-18T00:39:39.109Z,1016.34
2018-02-18T00:40:19.551Z,1016.35
2018-02-18T00:40:59.867Z,1016.38
2018-02-18T00:41:40.305Z,1016.41
2018-02-18T00:42:20.780Z,1016.38
2018-02-18T00:43:01.252Z,1016.4
2018-02-18T00:43:41.652Z,1016.37
2018-02-18T00:44:22.067Z,1016.37
2018-02-18T00:45:02.371Z,1016.37
2018-02-18T00:45:42.802Z,1016.37
2018-02-18T00:46:23.270Z,1016.4
2018-02-18T00:47:03.614Z,1016.37
2018-02-18T00:47:43.968Z,1016.39
2018-02-18T00:48:24.429Z,1016.35
2018-02-18T00:49:04.838Z,1016.38
2018-02-18T00:49:45.281Z,1016.42
2018-02-18T00:50:25.545Z,1016.41
2018-02-18T00:51:06.025Z,1016.42
2018-02-18T00:51:46.441Z,1016.46
2018-02-18T00:52:26.868Z,1016.44
2018-02-18T00:53:07.260Z,1016.44
2018-02-18T00:53:47.583Z,1016.43
2018-02-18T00:54:27.953Z,1016.43
2018-02-18T00:55:08.461Z,1016.39
2018-02-18T00:55:48.895Z,1016.45
2018-02-18T00:56:29.258Z,1016.43
2018-02-18T00:57:09.655Z,1016.47
2018-02-18T00:57:50.046Z,1016.47
2018-02-18T00:58:30.421Z,1016.51
2018-02-18T00:59:10.867Z,1016.47
2018-02-18T00:59:51.274Z,1016.46
2018-02-18T01:00:31.689Z,1016.43
2018-02-18T01:01:12.084Z,1016.44
2018-02-18T01:01:52.487Z,1016.46
2018-02-18T01:02:32.873Z,1016.47
2018-02-18T01:03:13.315Z,1016.48
2018-02-18T01:03:53.686Z,1016.5
2018-02-18T01:04:34.045Z,1016.5
2018-02-18T01:05:14.487Z,1016.5
2018-02-18T01:05:54.902Z,1016.5
2018-02-18T01:06:35.291Z,1016.53
2018-02-18T01:07:15.717Z,1016.48
2018-02-18T01:07:56.037Z,1016.49
2018-02-18T01:08:36.571Z,1016.52
2018-02-18T01:09:16.881Z,1016.53
2018-02-18T01:09:57.213Z,1016.53
2018-02-18T01:10:37.651Z,1016.52
2018-02-18T01:11:18.091Z,1016.52
2018-02-18T01:11:58.474Z,1016.49
2018-02-18T01:12:38.878Z,1016.55
2018-02-18T01:13:19.338Z,1016.53
2018-02-18T01:13:59.682Z,1016.53
2018-02-18T01:14:40.035Z,1016.5
2018-02-18T01:15:20.548Z,1016.49
2018-02-18T01:16:00.829Z,1016.48
2018-02-18T01:16:41.233Z,1016.49
2018-02-18T01:17:21.628Z,1016.47
2018-02-18T01:18:02.066Z,1016.43
2018-02-18T01:18:42.449Z,1016.48
2018-02-18T01:19:22.763Z,1016.48
2018-02-18T01:20:03.294Z,1016.47
2018-02-18T01:20:43.606Z,1016.52
2018-02-18T01:21:23.991Z,1016.48
2018-02-18T01:22:04.404Z,1016.47
2018-02-18T01:22:44.934Z,1016.49
2018-02-18T01:23:25.365Z,1016.53
2018-02-18T01:24:05.686Z,1016.52
2018-02-18T01:24:46.124Z,1016.52
2018-02-18T01:25:26.578Z,1016.55
2018-02-18T01:26:06.963Z,1016.53
2018-02-18T01:26:47.459Z,1016.57
2018-02-18T01:27:27.736Z,1016.59
2018-02-18T01:28:08.392Z,1016.61
2018-02-18T01:28:48.857Z,1016.64
2018-02-18T01:29:29.654Z,1016.6
2018-02-18T01:30:10.139Z,1016.61
2018-02-18T01:30:50.501Z,1016.61
2018-02-18T01:31:30.835Z,1016.57
2018-02-18T01:32:11.305Z,1016.57
2018-02-18T01:32:51.753Z,1016.58
2018-02-18T01:33:32.152Z,1016.56
2018-02-18T01:34:12.634Z,1016.56
2018-02-18T01:34:52.915Z,1016.53
2018-02-18T01:35:33.363Z,1016.52
2018-02-18T01:36:13.704Z,1016.52
2018-02-18T01:36:54.228Z,1016.52
2018-02-18T01:37:34.720Z,1016.52
2018-02-18T01:38:15.111Z,1016.6
2018-02-18T01:38:55.497Z,1016.62
2018-02-18T01:39:35.873Z,1016.55
2018-02-18T01:40:16.353Z,1016.58
2018-02-18T01:40:56.742Z,1016.61
2018-02-18T01:41:37.236Z,1016.64
2018-02-18T01:42:17.692Z,1016.59
2018-02-18T01:42:58.087Z,1016.63
2018-02-18T01:43:38.417Z,1016.61
2018-02-18T01:44:18.828Z,1016.66
2018-02-18T01:44:59.373Z,1016.66
2018-02-18T01:45:39.732Z,1016.62
2018-02-18T01:46:20.121Z,1016.68
2018-02-18T01:47:00.622Z,1016.62
2018-02-18T01:47:41.037Z,1016.68
2018-02-18T01:48:21.391Z,1016.7
2018-02-18T01:49:01.885Z,1016.65
2018-02-18T01:49:42.556Z,1016.66
2018-02-18T01:50:22.969Z,1016.64
2018-02-18T01:51:03.423Z,1016.67
2018-02-18T01:51:43.823Z,1016.68
2018-02-18T01:52:24.241Z,1016.68
2018-02-18T01:53:04.601Z,1016.69
2018-02-18T01:53:45.092Z,1016.69
2018-02-18T01:54:25.665Z,1016.7
2018-02-18T01:55:06.034Z,1016.64
2018-02-18T01:55:46.416Z,1016.69
2018-02-18T01:56:26.832Z,1016.7
2018-02-18T01:57:07.396Z,1016.72
2018-02-18T01:57:47.744Z,1016.7
2018-02-18T01:58:28.218Z,1016.73
2018-02-18T01:59:08.688Z,1016.67
2018-02-18T01:59:49.074Z,1016.69
2018-02-18T02:00:29.495Z,1016.68
2018-02-18T02:01:10.043Z,1016.65
2018-02-18T02:01:50.591Z,1016.61
2018-02-18T02:02:31.025Z,1016.6
2018-02-18T02:03:11.377Z,1016.58
2018-02-18T02:03:51.738Z,1016.54
2018-02-18T02:04:32.196Z,1016.53
2018-02-18T02:05:12.573Z,1016.53
2018-02-18T02:05:53.215Z,1016.5
2018-02-18T02:06:33.632Z,1016.54
2018-02-18T02:07:14.115Z,1016.47
2018-02-18T02:07:54.506Z,1016.45
2018-02-18T02:08:34.968Z,1016.47
2018-02-18T02:09:15.393Z,1016.43
2018-02-18T02:09:55.918Z,1016.48
2018-02-18T02:10:36.328Z,1016.44
2018-02-18T02:11:16.764Z,1016.5
2018-02-18T02:11:57.119Z,1016.44
2018-02-18T02:12:37.594Z,1016.42
2018-02-18T02:13:17.974Z,1016.47
2018-02-18T02:13:58.560Z,1016.45
2018-02-18T02:14:38.918Z,1016.44
2018-02-18T02:15:19.379Z,1016.43
2018-02-18T02:15:59.978Z,1016.5
2018-02-18T02:16:40.570Z,1016.43
2018-02-18T02:17:21.035Z,1016.4
2018-02-18T02:18:01.549Z,1016.41
2018-02-18T02:18:41.917Z,1016.43
2018-02-18T02:19:22.342Z,1016.49
2018-02-18T02:20:03.025Z,1016.44
2018-02-18T02:20:43.423Z,1016.46
2018-02-18T02:21:23.705Z,1016.49
2018-02-18T02:22:04.174Z,1016.5
2018-02-18T02:22:44.540Z,1016.47
2018-02-18T02:23:24.998Z,1016.5
2018-02-18T02:24:05.512Z,1016.49
2018-02-18T02:24:45.781Z,1016.53
2018-02-18T02:25:26.290Z,1016.54
2018-02-18T02:26:06.658Z,1016.53
2018-02-18T02:26:47.132Z,1016.59
2018-02-18T02:27:27.598Z,1016.56
2018-02-18T02:28:08.028Z,1016.54
2018-02-18T02:28:48.437Z,1016.52
2018-02-18T02:29:28.901Z,1016.58
2018-02-18T02:30:09.320Z,1016.53
2018-02-18T02:30:49.685Z,1016.6
2018-02-18T02:31:30.292Z,1016.58
2018-02-18T02:32:10.620Z,1016.55
2018-02-18T02:32:51.038Z,1016.6
2018-02-18T02:33:31.611Z,1016.58
2018-02-18T02:34:12.081Z,1016.55
2018-02-18T02:34:52.559Z,1016.57
2018-02-18T02:35:32.927Z,1016.58
2018-02-18T02:36:13.356Z,1016.58
2018-02-18T02:36:53.887Z,1016.55
2018-02-18T02:37:34.287Z,1016.52
2018-02-18T02:38:14.730Z,1016.57
2018-02-18T02:38:55.139Z,1016.53
2018-02-18T02:39:35.554Z,1016.51
2018-02-18T02:40:16.171Z,1016.47
2018-02-18T02:40:56.502Z,1016.48
2018-02-18T02:41:36.898Z,1016.53
2018-02-18T02:42:17.399Z,1016.5
2018-02-18T02:42:57.924Z,1016.55
2018-02-18T02:43:38.420Z,1016.55
2018-02-18T02:44:18.882Z,1016.53
2018-02-18T02:44:59.310Z,1016.55
2018-02-18T02:45:39.837Z,1016.51
2018-02-18T02:46:20.389Z,1016.56
2018-02-18T02:47:00.802Z,1016.58
2018-02-18T02:47:41.231Z,1016.61
2018-02-18T02:48:21.753Z,1016.63
2018-02-18T02:49:02.190Z,1016.56
2018-02-18T02:49:42.612Z,1016.59
2018-02-18T02:50:23.171Z,1016.59
2018-02-18T02:51:03.568Z,1016.6
2018-02-18T02:51:44.040Z,1016.6
2018-02-18T02:52:24.534Z,1016.59
2018-02-18T02:53:04.992Z,1016.6
2018-02-18T02:53:45.530Z,1016.59
2018-02-18T02:54:25.976Z,1016.56
2018-02-18T02:55:06.577Z,1016.59
2018-02-18T02:55:46.889Z,1016.57
2018-02-18T02:56:27.217Z,1016.56
2018-02-18T02:57:07.752Z,1016.54
2018-02-18T02:57:48.355Z,1016.53
2018-02-18T02:58:28.884Z,1016.5
2018-02-18T02:59:09.399Z,1016.54
2018-02-18T02:59:49.923Z,1016.56
2018-02-18T03:00:30.332Z,1016.5
2018-02-18T03:01:10.895Z,1016.51
2018-02-18T03:01:51.334Z,1016.47
2018-02-18T03:02:31.959Z,1016.5
2018-02-18T03:03:12.604Z,1016.51
2018-02-18T03:03:53.270Z,1016.53
2018-02-18T03:04:33.732Z,1016.48
2018-02-18T03:05:14.448Z,1016.51
2018-02-18T03:05:54.845Z,1016.5
2018-02-18T03:06:35.260Z,1016.5
2018-02-18T03:07:15.790Z,1016.51
2018-02-18T03:07:56.172Z,1016.52
2018-02-18T03:08:36.812Z,1016.42
2018-02-18T03:09:17.188Z,1016.44
2018-02-18T03:09:57.674Z,1016.44
2018-02-18T03:10:38.159Z,1016.45
2018-02-18T03:11:18.683Z,1016.47
2018-02-18T03:11:59.075Z,1016.49
2018-02-18T03:12:39.736Z,1016.42
2018-02-18T03:13:20.219Z,1016.42
2018-02-18T03:14:00.595Z,1016.44
2018-02-18T03:14:41.194Z,1016.46
2018-02-18T03:15:21.768Z,1016.44
2018-02-18T03:16:02.354Z,1016.46
2018-02-18T03:16:42.907Z,1016.4
2018-02-18T03:17:23.225Z,1016.43
2018-02-18T03:18:03.850Z,1016.43
2018-02-18T03:18:44.407Z,1016.4
2018-02-18T03:19:24.763Z,1016.41
2018-02-18T03:20:05.379Z,1016.38
2018-02-18T03:20:45.760Z,1016.36
2018-02-18T03:21:26.308Z,1016.36
2018-02-18T03:22:06.756Z,1016.31
2018-02-18T03:22:47.094Z,1016.36
2018-02-18T03:23:27.928Z,1016.33
2018-02-18T03:24:08.365Z,1016.33
2018-02-18T03:24:48.985Z,1016.29
2018-02-18T03:25:29.258Z,1016.29
2018-02-18T03:26:09.896Z,1016.31
2018-02-18T03:26:50.249Z,1016.3
2018-02-18T03:27:30.789Z,1016.34
2018-02-18T03:28:11.243Z,1016.3
2018-02-18T03:28:51.764Z,1016.3
2018-02-18T03:29:32.734Z,1016.28
2018-02-18T03:30:13.179Z,1016.29
2018-02-18T03:30:53.438Z,1016.25
2018-02-18T03:31:33.955Z,1016.28
2018-02-18T03:32:14.451Z,1016.28
2018-02-18T03:32:55.012Z,1016.26
2018-02-18T03:33:35.407Z,1016.3
2018-02-18T03:34:15.799Z,1016.32
2018-02-18T03:34:56.212Z,1016.29
2018-02-18T03:35:36.665Z,1016.31
2018-02-18T03:36:17.293Z,1016.27
2018-02-18T03:36:57.709Z,1016.32
2018-02-18T03:37:38.162Z,1016.33
2018-02-18T03:38:18.691Z,1016.29
2018-02-18T03:38:59.229Z,1016.35
2018-02-18T03:39:39.615Z,1016.3
2018-02-18T03:40:20.035Z,1016.33
2018-02-18T03:41:00.538Z,1016.31
2018-02-18T03:41:41.080Z,1016.31
2018-02-18T03:42:21.713Z,1016.36
2018-02-18T03:43:01.996Z,1016.32
2018-02-18T03:43:42.434Z,1016.32
2018-02-18T03:44:22.755Z,1016.33
2018-02-18T03:45:04.147Z,1016.32
2018-02-18T03:45:44.721Z,1016.28
2018-02-18T03:46:25.320Z,1016.33
2018-02-18T03:47:05.980Z,1016.3
2018-02-18T03:47:46.398Z,1016.31
2018-02-18T03:48:26.908Z,1016.34
2018-02-18T03:49:07.454Z,1016.26
2018-02-18T03:49:47.722Z,1016.29
2018-02-18T03:50:28.484Z,1016.28
2018-02-18T03:51:08.793Z,1016.28
2018-02-18T03:51:49.418Z,1016.26
2018-02-18T03:52:29.807Z,1016.25
2018-02-18T03:53:10.205Z,1016.26
2018-02-18T03:53:50.734Z,1016.26
2018-02-18T03:54:31.428Z,1016.3
2018-02-18T03:55:11.794Z,1016.22
2018-02-18T03:55:52.799Z,1016.28
2018-02-18T03:56:33.434Z,1016.22
2018-02-18T03:57:13.949Z,1016.23
2018-02-18T03:57:54.492Z,1016.24
2018-02-18T03:58:35.439Z,1016.26
2018-02-18T03:59:16.038Z,1016.25
2018-02-18T03:59:56.487Z,1016.22
2018-02-18T04:00:37.333Z,1016.27
2018-02-18T04:01:17.959Z,1016.28
2018-02-18T04:01:58.407Z,1016.3
2018-02-18T04:02:39.593Z,1016.28
2018-02-18T04:03:20.132Z,1016.28
2018-02-18T04:04:00.549Z,1016.3
2018-02-18T04:04:41.256Z,1016.28
2018-02-18T04:05:21.713Z,1016.3
2018-02-18T04:06:02.347Z,1016.29
2018-02-18T04:45:52.204Z,1016.52
2018-02-18T04:51:39.041Z,1016.45
2018-02-18T04:52:29.733Z,1016.49
2018-02-18T05:01:40.705Z,1016.53
2018-02-18T05:02:33.213Z,1016.51
2018-02-18T05:03:25.377Z,1016.47
2018-02-18T05:04:17.610Z,1016.52
2018-02-18T05:05:09.562Z,1016.49
2018-02-18T05:06:02.048Z,1016.53
2018-02-18T05:06:54.195Z,1016.5
2018-02-18T05:07:46.549Z,1016.57
2018-02-18T05:08:38.544Z,1016.56
2018-02-18T05:09:30.784Z,1016.55
2018-02-18T05:10:23.186Z,1016.55
2018-02-18T05:11:15.713Z,1016.56
2018-02-18T05:12:07.678Z,1016.54
2018-02-18T05:12:59.962Z,1016.55
2018-02-18T05:13:57.493Z,1016.56
2018-02-18T05:14:48.917Z,1016.6
2018-02-18T05:15:41.102Z,1016.59
2018-02-18T05:16:33.173Z,1016.57
2018-02-18T05:17:25.314Z,1016.54
2018-02-18T05:18:17.216Z,1016.58
2018-02-18T05:19:09.544Z,1016.54
2018-02-18T05:20:02.041Z,1016.58
2018-02-18T05:20:54.120Z,1016.59
2018-02-18T05:21:46.231Z,1016.54
2018-02-18T05:22:38.355Z,1016.53
2018-02-18T05:23:30.751Z,1016.55
2018-02-18T05:24:22.591Z,1016.57
2018-02-18T05:25:15.151Z,1016.61
2018-02-18T05:26:07.544Z,1016.6
2018-02-18T05:27:00.619Z,1016.55
2018-02-18T05:27:53.656Z,1016.58
2018-02-18T05:28:45.819Z,1016.55
2018-02-18T05:29:38.178Z,1016.55
2018-02-18T05:30:30.493Z,1016.52
2018-02-18T05:31:22.671Z,1016.56
2018-02-18T05:32:14.614Z,1016.54
2018-02-18T05:33:07.192Z,1016.54
2018-02-18T05:34:00.073Z,1016.53
2018-02-18T05:34:52.739Z,1016.59
2018-02-18T05:35:37.871Z,1016.59
2018-02-18T05:36:18.529Z,1016.59
2018-02-18T05:36:59.311Z,1016.63
2018-02-18T05:37:39.728Z,1016.6
2018-02-18T05:38:20.214Z,1016.63
2018-02-18T05:39:00.927Z,1016.65
2018-02-18T05:39:41.634Z,1016.66
2018-02-18T05:40:21.933Z,1016.66
2018-02-18T05:41:02.731Z,1016.7
2018-02-18T05:41:43.586Z,1016.73
2018-02-18T05:42:24.261Z,1016.71
2018-02-18T05:43:05.194Z,1016.72
2018-02-18T05:43:45.972Z,1016.71
2018-02-18T05:44:26.471Z,1016.71
2018-02-18T05:45:06.610Z,1016.71
2018-02-18T05:45:47.192Z,1016.73
2018-02-18T05:46:27.610Z,1016.75
2018-02-18T05:47:08.185Z,1016.72
2018-02-18T05:47:48.783Z,1016.67
2018-02-18T05:48:30.834Z,1016.73
2018-02-18T05:49:11.273Z,1016.7
2018-02-18T05:49:52.041Z,1016.74
2018-02-18T05:50:32.569Z,1016.7
2018-02-18T05:51:12.900Z,1016.7
2018-02-18T05:51:54.331Z,1016.72
2018-02-18T05:52:35.828Z,1016.7
2018-02-18T05:53:16.085Z,1016.65
2018-02-18T05:53:57.551Z,1016.69
2018-02-18T05:54:38.172Z,1016.71
2018-02-18T05:55:18.940Z,1016.68
2018-02-18T05:55:59.815Z,1016.69
2018-02-18T05:56:40.505Z,1016.7
2018-02-18T05:57:21.625Z,1016.71
2018-02-18T05:58:02.120Z,1016.72
2018-02-18T05:58:42.897Z,1016.74
2018-02-18T05:59:25.047Z,1016.76
2018-02-18T06:00:06.660Z,1016.74
2018-02-18T06:00:47.363Z,1016.77
2018-02-18T06:01:28.014Z,1016.74
2018-02-18T06:02:08.706Z,1016.75
2018-02-18T06:02:49.660Z,1016.72
2018-02-18T06:03:31.267Z,1016.67
2018-02-18T06:04:11.796Z,1016.68
2018-02-18T06:04:55.530Z,1016.71
2018-02-18T06:05:36.239Z,1016.65
2018-02-18T06:06:18.125Z,1016.68
2018-02-18T06:06:58.708Z,1016.69
2018-02-18T06:07:39.993Z,1016.59
2018-02-18T06:08:20.703Z,1016.62
2018-02-18T06:09:01.130Z,1016.66
2018-02-18T06:09:41.748Z,1016.64
2018-02-18T06:10:22.197Z,1016.63
2018-02-18T06:11:02.522Z,1016.64
2018-02-18T06:11:43.533Z,1016.67
2018-02-18T06:12:24.000Z,1016.71
2018-02-18T06:13:04.541Z,1016.7
2018-02-18T06:13:45.116Z,1016.68
2018-02-18T06:14:25.788Z,1016.68
2018-02-18T06:15:06.156Z,1016.7
2018-02-18T06:15:46.726Z,1016.68
2018-02-18T06:16:27.167Z,1016.73
2018-02-18T06:17:07.811Z,1016.71
2018-02-18T06:17:48.724Z,1016.69
2018-02-18T06:18:28.975Z,1016.7
2018-02-18T06:19:09.821Z,1016.67
2018-02-18T06:19:50.633Z,1016.66
2018-02-18T06:20:30.728Z,1016.69
2018-02-18T06:21:12.091Z,1016.65
2018-02-18T06:21:53.268Z,1016.66
2018-02-18T06:22:34.124Z,1016.66
2018-02-18T06:23:14.913Z,1016.67
2018-02-18T06:23:55.844Z,1016.67
2018-02-18T06:24:37.321Z,1016.65
2018-02-18T06:25:17.818Z,1016.61
2018-02-18T06:26:09.457Z,1016.6
2018-02-18T06:26:50.593Z,1016.6
2018-02-18T06:27:31.584Z,1016.52
2018-02-18T06:28:12.275Z,1016.6
2018-02-18T06:28:54.008Z,1016.62
2018-02-18T06:29:34.761Z,1016.65
2018-02-18T06:30:17.680Z,1016.62
2018-02-18T06:30:58.863Z,1016.65
2018-02-18T06:31:39.461Z,1016.61
2018-02-18T06:32:20.278Z,1016.58
2018-02-18T06:33:02.709Z,1016.62
2018-02-18T06:33:43.662Z,1016.58
2018-02-18T06:34:24.472Z,1016.6
2018-02-18T06:35:05.985Z,1016.6
2018-02-18T06:35:46.814Z,1016.59
2018-02-18T06:36:28.476Z,1016.61
2018-02-18T06:37:10.202Z,1016.6
2018-02-18T06:37:51.269Z,1016.63
2018-02-18T06:38:32.432Z,1016.59
2018-02-18T06:39:13.569Z,1016.62
2018-02-18T06:39:54.741Z,1016.63
2018-02-18T06:40:36.605Z,1016.65
2018-02-18T06:41:17.144Z,1016.63
2018-02-18T06:41:58.998Z,1016.6
2018-02-18T06:42:40.029Z,1016.64
2018-02-18T06:43:20.953Z,1016.6
2018-02-18T06:44:02.637Z,1016.63
2018-02-18T06:44:43.387Z,1016.62
2018-02-18T06:45:23.964Z,1016.63
2018-02-18T06:46:05.503Z,1016.63
2018-02-18T06:46:47.428Z,1016.6
2018-02-18T06:47:28.252Z,1016.6
2018-02-18T06:48:08.591Z,1016.58
2018-02-18T06:48:49.169Z,1016.57
2018-02-18T06:49:29.819Z,1016.56
2018-02-18T06:50:10.284Z,1016.58
2018-02-18T06:50:50.734Z,1016.6
2018-02-18T06:51:31.389Z,1016.58
2018-02-18T06:52:13.968Z,1016.62
2018-02-18T06:52:54.305Z,1016.63
2018-02-18T06:53:38.800Z,1016.7
2018-02-18T06:54:19.124Z,1016.75
2018-02-18T06:54:59.755Z,1016.71
2018-02-18T06:58:46.209Z,1016.77
2018-02-18T07:10:14.977Z,1016.89
2018-02-18T09:18:00.421Z,1017.13
2018-02-18T09:18:40.810Z,1017.15
2018-02-18T09:19:21.211Z,1017.15
2018-02-18T09:20:01.624Z,1017.15
2018-02-18T09:20:42.086Z,1017.06
2018-02-18T09:21:22.441Z,1017.08
2018-02-18T09:22:03.054Z,1017.06
2018-02-18T09:22:43.472Z,1017.05
2018-02-18T09:23:24.139Z,1017.04
2018-02-18T09:24:04.492Z,1017.08
2018-02-18T09:24:45.103Z,1017
2018-02-18T09:28:10.142Z,1017.04
2018-02-18T09:30:05.265Z,1017
2018-02-18T09:30:50.513Z,1017.01
2018-02-18T09:31:30.356Z,1017.07
2018-02-18T09:32:10.602Z,1017.08
2018-02-18T09:32:50.979Z,1017.04
2018-02-18T09:33:31.649Z,1017.09
2018-02-18T09:34:12.350Z,1017.12
2018-02-18T09:34:53.061Z,1017.07
2018-02-18T09:35:33.672Z,1017.08
2018-02-18T09:36:15.296Z,1017.11
2018-02-18T09:36:56.619Z,1017.08
2018-02-18T09:37:37.482Z,1017.09
2018-02-18T09:38:17.797Z,1017.07
2018-02-18T09:39:03.188Z,1017.08
2018-02-18T09:39:44.959Z,1017.1
2018-02-18T09:40:25.393Z,1017.15
2018-02-18T09:41:07.735Z,1017.08
2018-02-18T09:41:48.112Z,1017.11
2018-02-18T09:42:28.694Z,1017.11
2018-02-18T09:43:15.528Z,1017.1
2018-02-18T09:43:57.529Z,1017.14
2018-02-18T09:44:38.528Z,1017.18
2018-02-18T09:45:19.083Z,1017.11
2018-02-18T09:46:02.440Z,1017.16
2018-02-18T09:46:43.807Z,1017.23
2018-02-18T09:47:40.164Z,1017.22
2018-02-18T09:48:20.269Z,1017.21
2018-02-18T09:49:00.756Z,1017.23
2018-02-18T09:49:41.165Z,1017.17
2018-02-18T09:50:21.731Z,1017.18
2018-02-18T09:51:02.862Z,1017.16
2018-02-18T09:51:45.194Z,1017.14
2018-02-18T09:52:25.613Z,1017.18
2018-02-18T09:53:06.536Z,1017.15
2018-02-18T09:53:47.429Z,1017.22
2018-02-18T09:54:29.210Z,1017.16
2018-02-18T09:55:09.662Z,1017.12
2018-02-18T09:55:52.907Z,1017.15
2018-02-18T09:56:35.870Z,1017.19
2018-02-18T09:57:18.105Z,1017.13
2018-02-18T09:57:57.711Z,1017.27
2018-02-18T09:58:38.206Z,1017.11
2018-02-18T09:59:18.776Z,1017.16
2018-02-18T09:59:59.762Z,1017.14
2018-02-18T10:00:40.171Z,1017.15
2018-02-18T10:01:22.177Z,1017.18
2018-02-18T10:02:02.769Z,1017.16
2018-02-18T10:02:43.772Z,1017.17
2018-02-18T10:03:24.456Z,1017.21
2018-02-18T10:04:05.515Z,1017.13
2018-02-18T10:04:45.892Z,1017.13
2018-02-18T10:05:27.079Z,1017.16
2018-02-18T10:06:07.476Z,1017.16
2018-02-18T10:06:49.379Z,1017.18
2018-02-18T10:45:19.384Z,1017.22
2018-02-18T10:48:02.182Z,1017.23
2018-02-18T10:50:39.497Z,1017.27
2018-02-18T10:51:36.539Z,1017.23
2018-02-18T10:52:29.418Z,1017.2
2018-02-18T10:54:31.487Z,1017.23
2018-02-18T10:55:11.962Z,1017.2
2018-02-18T10:55:52.602Z,1017.18
2018-02-18T10:56:32.952Z,1017.25
2018-02-18T10:57:13.401Z,1017.18
2018-02-18T10:57:53.793Z,1017.12
2018-02-18T10:58:34.234Z,1017.19
2018-02-18T10:59:15.482Z,1017.18
2018-02-18T10:59:56.082Z,1017.24
2018-02-18T11:00:36.442Z,1017.2
2018-02-18T11:01:16.894Z,1017.18
2018-02-18T11:01:57.295Z,1017.18
2018-02-18T11:02:37.746Z,1017.15
2018-02-18T11:03:18.182Z,1017.15
2018-02-18T11:03:58.659Z,1017.14
2018-02-18T11:04:39.001Z,1017.12
2018-02-18T11:05:19.437Z,1017.19
2018-02-18T11:05:59.863Z,1017.11
2018-02-18T11:06:40.276Z,1017.11
2018-02-18T11:07:20.587Z,1017.2
2018-02-18T11:08:01.322Z,1017.17
2018-02-18T11:08:41.718Z,1017.16
2018-02-18T11:09:22.126Z,1017.14
2018-02-18T11:10:02.575Z,1017.15
2018-02-18T11:10:43.826Z,1017.13
2018-02-18T11:11:24.235Z,1017.12
2018-02-18T11:12:04.654Z,1017.17
2018-02-18T11:12:45.061Z,1017.11
2018-02-18T11:13:25.538Z,1017.16
2018-02-18T11:14:05.858Z,1017.15
2018-02-18T11:14:46.199Z,1017.12
2018-02-18T11:18:16.832Z,1017.13
2018-02-18T11:18:55.593Z,1017.15
2018-02-18T11:19:37.297Z,1017.16
2018-02-18T11:20:19.358Z,1017.14
2018-02-18T11:21:00.088Z,1017.12
2018-02-18T11:21:40.252Z,1017.1
2018-02-18T11:22:23.079Z,1017.12
2018-02-18T11:23:03.495Z,1017.06
2018-02-18T11:23:44.051Z,1017.09
2018-02-18T11:24:25.656Z,1017.04
2018-02-18T11:25:06.357Z,1017
2018-02-18T11:25:47.319Z,1017.07
2018-02-18T11:26:27.931Z,1017.01
2018-02-18T11:27:08.679Z,1017.04
2018-02-18T11:27:50.887Z,1016.99
2018-02-18T11:28:34.400Z,1017.05
2018-02-18T11:29:14.864Z,1017.03
2018-02-18T11:29:56.873Z,1017.06
2018-02-18T11:30:36.455Z,1017.07
2018-02-18T11:31:17.276Z,1017.07
2018-02-18T11:31:58.072Z,1017.06
2018-02-18T11:32:40.148Z,1017.08
2018-02-18T11:33:23.546Z,1017.06
2018-02-18T11:34:05.294Z,1017.05
2018-02-18T11:34:51.284Z,1017.07
2018-02-18T11:35:30.388Z,1017.01
2018-02-18T11:36:10.915Z,1017.02
2018-02-18T11:36:51.478Z,1016.94
2018-02-18T11:37:32.231Z,1016.98
2018-02-18T11:38:13.310Z,1016.98
2018-02-18T11:38:55.272Z,1017.01
2018-02-18T11:41:18.669Z,1016.9
2018-02-18T11:43:21.103Z,1016.96
2018-02-18T11:44:19.678Z,1016.89
2018-02-18T11:45:11.979Z,1016.88
2018-02-18T11:46:04.532Z,1016.85
2018-02-18T11:46:56.990Z,1016.88
2018-02-18T11:47:49.489Z,1016.85
2018-02-18T11:48:37.153Z,1016.86
2018-02-18T11:49:17.267Z,1016.86
2018-02-18T11:49:57.699Z,1016.84
2018-02-18T11:50:38.130Z,1016.85
2018-02-18T11:51:18.562Z,1016.89
2018-02-18T11:51:58.943Z,1016.9
2018-02-18T11:52:39.357Z,1016.89
2018-02-18T11:53:20.074Z,1016.9
2018-02-18T11:54:00.174Z,1016.89
2018-02-18T11:54:40.594Z,1016.89
2018-02-18T11:55:20.961Z,1016.87
2018-02-18T11:56:01.430Z,1016.84
2018-02-18T11:56:42.861Z,1016.91
2018-02-18T11:57:23.507Z,1016.94
2018-02-18T11:58:09.926Z,1016.91
2018-02-18T11:58:50.213Z,1016.93
2018-02-18T11:59:30.540Z,1016.9
2018-02-18T12:00:10.898Z,1016.91
2018-02-18T12:00:51.326Z,1016.89
2018-02-18T12:01:31.700Z,1016.87
2018-02-18T12:02:12.149Z,1016.82
2018-02-18T12:02:52.592Z,1016.8
2018-02-18T12:03:32.984Z,1016.8
2018-02-18T12:04:13.374Z,1016.8
2018-02-18T12:04:53.844Z,1016.79
2018-02-18T12:05:34.226Z,1016.82
2018-02-18T12:06:14.552Z,1016.74
2018-02-18T12:06:54.987Z,1016.8
2018-02-18T12:07:35.406Z,1016.77
2018-02-18T12:08:16.100Z,1016.75
2018-02-18T12:09:02.853Z,1016.79
2018-02-18T12:09:45.879Z,1016.76
2018-02-18T12:10:26.339Z,1016.77
2018-02-18T12:11:07.151Z,1016.74
2018-02-18T12:11:58.058Z,1016.71
2018-02-18T12:12:38.769Z,1016.72
2018-02-18T12:13:19.130Z,1016.68
2018-02-18T12:13:59.512Z,1016.68
2018-02-18T12:14:39.893Z,1016.7
2018-02-18T12:15:20.428Z,1016.69
2018-02-18T12:16:02.800Z,1016.63
2018-02-18T12:16:43.190Z,1016.65
2018-02-18T12:17:23.553Z,1016.6
2018-02-18T12:18:03.902Z,1016.61
2018-02-18T12:18:44.450Z,1016.65
2018-02-18T12:19:24.796Z,1016.56
2018-02-18T12:20:05.325Z,1016.55
2018-02-18T12:20:45.819Z,1016.55
2018-02-18T12:21:26.197Z,1016.49
2018-02-18T12:23:48.150Z,1016.48
2018-02-18T12:24:39.454Z,1016.45
2018-02-18T12:25:31.666Z,1016.47
2018-02-18T12:26:23.921Z,1016.49
2018-02-18T12:27:16.392Z,1016.51
2018-02-18T12:28:11.494Z,1016.6
2018-02-18T12:30:51.549Z,1016.49
2018-02-18T12:31:32.333Z,1016.54
2018-02-18T12:32:17.708Z,1016.54
2018-02-18T12:32:58.230Z,1016.53
2018-02-18T12:33:42.774Z,1016.56
2018-02-18T12:34:25.990Z,1016.51
2018-02-18T12:35:08.287Z,1016.51
2018-02-18T12:35:50.468Z,1016.52